createdAt,value
2017-02-13T00:00:37.306Z,1020.3
2017-02-13T00:10:49.628Z,1020.2
2017-02-13T00:21:01.948Z,1020.2
2017-02-13T00:31:14.279Z,1020.1
2017-02-13T00:41:26.584Z,1020.2
2017-02-13T00:51:38.857Z,1020.3
2017-02-13T01:01:51.158Z,1020.2
2017-02-13T01:12:03.378Z,1020.2
2017-02-13T01:22:15.633Z,1020.3
2017-02-13T01:32:27.863Z,1020.2
2017-02-13T01:42:40.080Z,1020.3
2017-02-13T01:52:52.294Z,1020.4
2017-02-13T02:03:04.556Z,1020.3
2017-02-13T02:13:16.787Z,1020.3
2017-02-13T02:23:29.028Z,1020.3
2017-02-13T02:33:41.201Z,1020.3
2017-02-13T02:43:53.438Z,1020.3
2017-02-13T02:54:05.718Z,1020.4
2017-02-13T03:04:18.011Z,1020.3
2017-02-13T03:14:30.338Z,1020.3
2017-02-13T03:24:42.599Z,1020.3
2017-02-13T03:34:54.953Z,1020.4
2017-02-13T03:45:07.219Z,1020.5
2017-02-13T03:55:19.466Z,1020.5
2017-02-13T04:05:31.777Z,1020.6
2017-02-13T04:15:44.064Z,1020.7
2017-02-13T04:25:56.354Z,1020.5
2017-02-13T04:36:08.684Z,1020.8
2017-02-13T04:46:21.016Z,1020.8
2017-02-13T04:56:33.331Z,1020.6
2017-02-13T05:06:45.639Z,1020.6
2017-02-13T05:16:57.940Z,1020.5
2017-02-13T05:27:10.188Z,1020.4
2017-02-13T05:37:22.427Z,1020.4
2017-02-13T05:47:34.678Z,1020.4
2017-02-13T05:57:46.950Z,1020.3
2017-02-13T06:07:59.159Z,1020.3
2017-02-13T06:18:11.374Z,1020.4
2017-02-13T06:28:23.623Z,1020.5
2017-02-13T06:38:35.900Z,1020.4
2017-02-13T06:48:48.154Z,1020.3
2017-02-13T06:59:00.443Z,1020.6
2017-02-13T07:09:12.702Z,1020.6
2017-02-13T07:19:24.851Z,1020.5
2017-02-13T07:29:36.878Z,1020.4
2017-02-13T07:39:48.740Z,1020.6
2017-02-13T07:50:00.378Z,1020.5
2017-02-13T08:00:11.873Z,1020.5
2017-02-13T08:10:23.261Z,1020.5
2017-02-13T08:20:34.515Z,1020.6
2017-02-13T08:30:45.615Z,1020.6
2017-02-13T08:40:56.536Z,1020.5
2017-02-13T08:51:07.466Z,1020.6
2017-02-13T09:01:18.372Z,1020.5
2017-02-13T09:11:29.134Z,1020.5
2017-02-13T09:21:39.862Z,1020.4
2017-02-13T09:31:50.474Z,1020.4
2017-02-13T09:42:01.103Z,1020.5
2017-02-13T09:52:11.568Z,1020.4
2017-02-13T10:02:22.051Z,1020.5
2017-02-13T10:12:32.474Z,1020.5
2017-02-13T10:22:42.824Z,1020.6
2017-02-13T10:32:53.130Z,1020.5
2017-02-13T10:43:03.371Z,1020.6
2017-02-13T10:53:13.510Z,1020.5
2017-02-13T11:03:23.659Z,1020.5
2017-02-13T11:13:33.798Z,1020.5
2017-02-13T11:23:43.935Z,1020.6
2017-02-13T11:33:54.015Z,1020.4
2017-02-13T11:44:04.078Z,1020.4
2017-02-13T11:54:14.138Z,1020.4
2017-02-13T12:04:24.172Z,1020.3
2017-02-13T12:14:34.171Z,1020.2
2017-02-13T12:24:44.072Z,1020.1
2017-02-13T12:34:53.935Z,1020.2
2017-02-13T12:45:31.885Z,1020.1
2017-02-13T12:55:13.612Z,1020.3
2017-02-13T13:05:23.404Z,1020.2
2017-02-13T13:15:33.131Z,1020
2017-02-13T13:25:42.768Z,1020.1
2017-02-13T13:35:52.387Z,1020.4
2017-02-13T13:46:02.023Z,1020.6
2017-02-13T13:56:11.584Z,1020.6
2017-02-13T14:06:21.090Z,1020.5
2017-02-13T14:16:30.503Z,1020.4
2017-02-13T14:26:39.944Z,1020.2
2017-02-13T14:36:49.391Z,1019.7
2017-02-13T14:46:59.058Z,1019.9
2017-02-13T14:57:08.686Z,1019.8
2017-02-13T15:07:18.262Z,1019.8
2017-02-13T15:17:27.801Z,1019.6
2017-02-13T15:27:37.348Z,1019.5
2017-02-13T15:37:46.912Z,1019.5
2017-02-13T15:47:56.650Z,1019.7
2017-02-13T15:58:06.478Z,1019.7
2017-02-13T16:08:16.372Z,1019.6
2017-02-13T16:18:26.474Z,1019.6
2017-02-13T16:28:36.808Z,1019.6
2017-02-13T16:38:47.428Z,1019.7
2017-02-13T16:48:58.319Z,1019.6
2017-02-13T16:59:09.373Z,1019.8
2017-02-13T17:09:20.542Z,1019.9
2017-02-13T17:19:31.848Z,1020
2017-02-13T17:29:43.174Z,1019.9
2017-02-13T17:39:54.495Z,1019.9
2017-02-13T17:50:05.871Z,1020
2017-02-13T18:00:17.284Z,1020
2017-02-13T18:10:28.648Z,1020
2017-02-13T18:20:40.074Z,1020
2017-02-13T18:30:51.539Z,1019.9
2017-02-13T18:41:03.044Z,1019.8
2017-02-13T18:51:14.577Z,1019.7
2017-02-13T19:01:26.124Z,1019.8
2017-02-13T19:11:37.716Z,1019.7
2017-02-13T19:21:49.279Z,1019.7
2017-02-13T19:32:00.862Z,1019.7
2017-02-13T19:42:12.420Z,1019.7
2017-02-13T19:52:24.006Z,1019.5
2017-02-13T20:02:35.581Z,1019.6
2017-02-13T20:12:47.153Z,1019.6
2017-02-13T20:22:58.720Z,1019.6
2017-02-13T20:33:10.355Z,1019.6
2017-02-13T20:43:21.943Z,1019.7
2017-02-13T20:53:33.558Z,1019.8
2017-02-13T21:03:45.195Z,1019.8
2017-02-13T21:13:56.906Z,1019.8
2017-02-13T21:24:08.566Z,1019.8
2017-02-13T21:34:20.348Z,1019.8
2017-02-13T21:44:32.138Z,1019.8
2017-02-13T21:54:43.894Z,1019.9
2017-02-13T22:04:55.694Z,1019.9
2017-02-13T22:15:07.506Z,1019.8
2017-02-13T22:25:19.343Z,1019.7
2017-02-13T22:35:31.207Z,1019.8
2017-02-13T22:45:43.096Z,1019.7
2017-02-13T22:55:55.078Z,1019.8
2017-02-13T23:06:07.069Z,1019.8
2017-02-13T23:16:19.003Z,1019.8
2017-02-13T23:26:30.931Z,1019.8
2017-02-13T23:36:42.928Z,1019.7
2017-02-13T23:46:54.877Z,1019.7
2017-02-13T23:57:06.857Z,1019.6
